Time;durP1;ratioP1;P1;durP2;ratioP2;P2;SDS_P1;SDS_P2;PMS_P1;PMS_P2;Temp;Humidity;BMP_temperature;BMP_pressure;BME280_temperature;BME280_humidity;BME280_pressure;Samples;Min_cycle;Max_cycle;Signal;HPM_P1;HPM_P2
2022/04/02 00:01:19;;;;;;;;;;;5.30;99.90;;;;;;5128643;27;19912;-59
2022/04/02 00:03:45;;;;;;;;;;;5.20;99.90;;;;;;5113812;27;19915;-62
2022/04/02 00:06:10;;;;;;;;;;;5.10;99.90;;;;;;5134511;27;20002;-65
2022/04/02 00:08:36;;;;;;;;;;;5.00;99.90;;;;;;5129488;27;19911;-63
2022/04/02 00:11:02;;;;;;;;;;;4.90;99.90;;;;;;5133616;27;20403;-62
2022/04/02 00:13:30;;;;;;;;;;;4.90;99.90;;;;;;5133495;27;19919;-63
2022/04/02 00:15:57;;;;;;;;;;;4.90;99.90;;;;;;5138607;27;19915;-62
2022/04/02 00:18:22;;;;;;;;;;;4.80;99.90;;;;;;5131987;27;19912;-61
2022/04/02 00:20:48;;;;;;;;;;;4.70;99.90;;;;;;5136077;27;19918;-62
2022/04/02 00:25:58;;;;;;;;;;;4.50;99.90;;;;;;5132471;27;19926;-62
2022/04/02 00:28:23;;;;;;;;;;;4.60;99.90;;;;;;5134820;27;19919;-63
2022/04/02 00:30:49;;;;;;;;;;;4.60;99.90;;;;;;5130855;27;19916;-62
2022/04/02 00:33:14;;;;;;;;;;;4.50;99.90;;;;;;5111495;27;20323;-62
2022/04/02 00:35:40;;;;;;;;;;;4.40;99.90;;;;;;5142923;27;19933;-63
2022/04/02 00:38:06;;;;;;;;;;;4.40;99.90;;;;;;5140199;27;19920;-63
2022/04/02 00:40:31;;;;;;;;;;;4.60;99.90;;;;;;5113063;27;19978;-62
2022/04/02 00:42:57;;;;;;;;;;;4.50;99.90;;;;;;5109068;27;19912;-62
2022/04/02 00:45:22;;;;;;;;;;;4.40;99.90;;;;;;5126598;27;19985;-63
2022/04/02 00:47:48;;;;;;;;;;;4.30;99.90;;;;;;5123916;27;19973;-62
2022/04/02 00:50:13;;;;;;;;;;;4.20;99.90;;;;;;5144477;27;19912;-61
2022/04/02 00:52:39;;;;;;;;;;;4.00;99.90;;;;;;5135832;27;19933;-61
2022/04/02 00:55:05;;;;;;;;;;;3.90;99.90;;;;;;5140231;27;20002;-63
2022/04/02 00:57:31;;;;;;;;;;;3.90;99.90;;;;;;5108570;27;20038;-62
2022/04/02 00:59:56;;;;;;;;;;;3.90;99.90;;;;;;5112699;27;19916;-61
2022/04/02 01:02:22;;;;;;;;;;;3.70;99.90;;;;;;5138341;27;19918;-62
2022/04/02 01:04:48;;;;;;;;;;;3.60;99.90;;;;;;5139005;27;20006;-62
2022/04/02 01:07:17;;;;;;;;;;;3.50;99.90;;;;;;5116182;27;19919;-61
2022/04/02 01:09:42;;;;;;;;;;;3.60;99.90;;;;;;5130879;27;19912;-62
2022/04/02 01:12:08;;;;;;;;;;;3.50;99.90;;;;;;5130379;27;20803;-62
2022/04/02 01:14:34;;;;;;;;;;;3.50;99.90;;;;;;5133876;27;19920;-62
2022/04/02 01:17:01;;;;;;;;;;;3.40;99.90;;;;;;5129474;27;19965;-63
2022/04/02 01:19:27;;;;;;;;;;;3.30;99.90;;;;;;5127337;27;20356;-62
2022/04/02 01:21:52;;;;;;;;;;;3.20;99.90;;;;;;5136568;27;20052;-62
2022/04/02 01:24:18;;;;;;;;;;;3.10;99.90;;;;;;5136460;27;19951;-62
2022/04/02 01:26:43;;;;;;;;;;;3.00;99.90;;;;;;5132272;27;19915;-61
2022/04/02 01:29:09;;;;;;;;;;;3.10;99.90;;;;;;5118853;27;19923;-63
2022/04/02 01:31:34;;;;;;;;;;;3.00;99.90;;;;;;5124355;27;19920;-61
2022/04/02 01:34:00;;;;;;;;;;;2.90;99.90;;;;;;5131866;27;19925;-61
2022/04/02 01:36:26;;;;;;;;;;;2.90;99.90;;;;;;5129559;27;19999;-61
2022/04/02 01:38:51;;;;;;;;;;;2.80;99.90;;;;;;5120422;27;20365;-61
2022/04/02 01:41:17;;;;;;;;;;;2.80;99.90;;;;;;5116732;28;19911;-62
2022/04/02 01:43:43;;;;;;;;;;;2.80;99.90;;;;;;5126753;27;19961;-63
2022/04/02 01:46:09;;;;;;;;;;;2.80;99.90;;;;;;5115415;28;20372;-61
2022/04/02 01:48:35;;;;;;;;;;;2.80;99.90;;;;;;5117412;28;19908;-62
2022/04/02 01:51:01;;;;;;;;;;;2.70;99.90;;;;;;5126307;27;19956;-62
2022/04/02 01:53:26;;;;;;;;;;;2.70;99.90;;;;;;5127151;27;19947;-62
2022/04/02 01:55:52;;;;;;;;;;;2.60;99.90;;;;;;5105718;27;19943;-61
2022/04/02 01:58:18;;;;;;;;;;;2.50;99.90;;;;;;5102688;27;20324;-62
2022/04/02 02:00:45;;;;;;;;;;;2.50;99.90;;;;;;5133063;27;19912;-61
2022/04/02 02:03:12;;;;;;;;;;;2.40;99.90;;;;;;5130053;27;20276;-62
2022/04/02 02:05:38;;;;;;;;;;;2.40;99.90;;;;;;5130381;27;20580;-62
2022/04/02 02:08:04;;;;;;;;;;;2.40;99.90;;;;;;5107178;27;19911;-62
2022/04/02 02:10:30;;;;;;;;;;;2.40;99.90;;;;;;5135792;27;19908;-63
2022/04/02 02:12:56;;;;;;;;;;;2.50;99.90;;;;;;5129361;27;19982;-61
2022/04/02 02:15:22;;;;;;;;;;;2.60;99.90;;;;;;5123459;27;20324;-62
2022/04/02 02:17:48;;;;;;;;;;;2.70;99.90;;;;;;5106031;27;20330;-62
2022/04/02 02:20:15;;;;;;;;;;;2.80;99.90;;;;;;5132970;27;19908;-62
2022/04/02 02:22:41;;;;;;;;;;;2.90;99.90;;;;;;5116548;27;19958;-62
2022/04/02 02:25:08;;;;;;;;;;;2.90;99.90;;;;;;5128280;27;19950;-66
2022/04/02 02:27:34;;;;;;;;;;;2.90;99.90;;;;;;5126960;27;19951;-63
2022/04/02 02:30:00;;;;;;;;;;;2.90;99.90;;;;;;5122377;27;19908;-62
2022/04/02 02:32:26;;;;;;;;;;;3.00;99.90;;;;;;5130047;27;20434;-63
2022/04/02 02:37:37;;;;;;;;;;;3.00;99.90;;;;;;5117203;27;19962;-62
2022/04/02 02:40:03;;;;;;;;;;;3.00;99.90;;;;;;5124818;27;19919;-63
2022/04/02 02:42:30;;;;;;;;;;;3.00;99.90;;;;;;5132547;27;19954;-62
2022/04/02 02:44:55;;;;;;;;;;;3.10;99.90;;;;;;5133293;27;19923;-61
2022/04/02 02:47:21;;;;;;;;;;;3.00;99.90;;;;;;5128816;27;19911;-62
2022/04/02 02:49:46;;;;;;;;;;;2.90;99.90;;;;;;5123355;27;19912;-62
2022/04/02 02:52:12;;;;;;;;;;;2.90;99.90;;;;;;5130688;27;19912;-62
2022/04/02 02:54:37;;;;;;;;;;;3.00;99.90;;;;;;5101032;27;19919;-62
2022/04/02 02:57:03;;;;;;;;;;;3.00;99.90;;;;;;5133832;27;19912;-62
2022/04/02 02:59:29;;;;;;;;;;;3.10;99.90;;;;;;5122241;27;19907;-62
2022/04/02 03:01:54;;;;;;;;;;;3.10;99.90;;;;;;5128905;27;19919;-62
2022/04/02 03:04:20;;;;;;;;;;;3.00;99.90;;;;;;5130755;27;19946;-61
2022/04/02 03:06:46;;;;;;;;;;;2.90;99.90;;;;;;5135809;27;19912;-62
2022/04/02 03:09:12;;;;;;;;;;;2.80;99.90;;;;;;5114175;28;19930;-61
2022/04/02 03:11:37;;;;;;;;;;;2.60;99.90;;;;;;5131979;27;20429;-65
2022/04/02 03:14:03;;;;;;;;;;;2.70;99.90;;;;;;5116832;27;20307;-62
2022/04/02 03:16:28;;;;;;;;;;;2.60;99.90;;;;;;5122811;27;19915;-61
2022/04/02 03:18:55;;;;;;;;;;;2.60;99.90;;;;;;5133680;27;19912;-62
2022/04/02 03:21:21;;;;;;;;;;;2.70;99.90;;;;;;5133523;27;19908;-62
2022/04/02 03:23:46;;;;;;;;;;;2.70;99.90;;;;;;5134680;27;20268;-63
2022/04/02 03:26:12;;;;;;;;;;;2.70;99.90;;;;;;5114178;27;20230;-61
2022/04/02 03:28:38;;;;;;;;;;;2.70;99.90;;;;;;5134178;27;19914;-62
2022/04/02 03:31:03;;;;;;;;;;;2.70;99.90;;;;;;5132691;27;20028;-62
2022/04/02 03:33:29;;;;;;;;;;;2.80;99.90;;;;;;5116140;27;20376;-62
2022/04/02 03:35:54;;;;;;;;;;;2.80;99.90;;;;;;5134772;27;19936;-62
2022/04/02 03:38:20;;;;;;;;;;;2.80;99.90;;;;;;5135512;27;20256;-62
2022/04/02 03:40:46;;;;;;;;;;;2.70;99.90;;;;;;5129163;27;20353;-62
2022/04/02 03:43:11;;;;;;;;;;;2.50;99.90;;;;;;5128853;27;20074;-62
2022/04/02 03:45:37;;;;;;;;;;;2.40;99.90;;;;;;5127679;27;19922;-64
2022/04/02 03:48:02;;;;;;;;;;;2.40;99.90;;;;;;5125538;27;19937;-61
2022/04/02 03:50:28;;;;;;;;;;;2.40;99.90;;;;;;5127170;27;19912;-61
2022/04/02 03:52:54;;;;;;;;;;;2.50;99.90;;;;;;5132891;27;19912;-62
2022/04/02 03:55:19;;;;;;;;;;;2.40;99.90;;;;;;5114154;27;19912;-61
2022/04/02 03:57:47;;;;;;;;;;;2.20;99.90;;;;;;5133331;27;19920;-60
2022/04/02 04:00:13;;;;;;;;;;;2.40;99.90;;;;;;5130017;27;19916;-63
2022/04/02 04:02:39;;;;;;;;;;;2.40;99.90;;;;;;5132434;27;20003;-63
2022/04/02 04:05:06;;;;;;;;;;;2.50;99.90;;;;;;5133656;27;20022;-62
2022/04/02 04:07:32;;;;;;;;;;;2.40;99.90;;;;;;5114104;28;20154;-63
2022/04/02 04:09:57;;;;;;;;;;;2.40;99.90;;;;;;5136716;27;19915;-62
2022/04/02 04:12:23;;;;;;;;;;;2.30;99.90;;;;;;5123117;27;19912;-62
2022/04/02 04:14:48;;;;;;;;;;;2.40;99.90;;;;;;5124878;27;19956;-63
2022/04/02 04:17:14;;;;;;;;;;;2.40;99.90;;;;;;5126095;28;19911;-63
2022/04/02 04:19:40;;;;;;;;;;;2.40;99.90;;;;;;5130778;28;19922;-62
2022/04/02 04:22:06;;;;;;;;;;;2.40;99.90;;;;;;5133022;28;19922;-61
2022/04/02 04:24:32;;;;;;;;;;;2.40;99.90;;;;;;5129631;27;19912;-63
2022/04/02 04:26:58;;;;;;;;;;;2.40;99.90;;;;;;5112839;28;20002;-61
2022/04/02 04:29:23;;;;;;;;;;;2.30;99.90;;;;;;5128755;28;20023;-62
2022/04/02 04:31:49;;;;;;;;;;;2.10;99.90;;;;;;5128204;27;19990;-61
2022/04/02 04:34:17;;;;;;;;;;;1.90;99.90;;;;;;5133392;27;20029;-61
2022/04/02 04:36:42;;;;;;;;;;;1.80;99.90;;;;;;5121423;27;20289;-62
2022/04/02 04:39:08;;;;;;;;;;;1.70;99.90;;;;;;5115949;28;19933;-62
2022/04/02 04:41:36;;;;;;;;;;;1.60;99.90;;;;;;5123714;28;19908;-62
2022/04/02 04:44:03;;;;;;;;;;;1.50;99.90;;;;;;5131971;27;20287;-61
2022/04/02 04:46:28;;;;;;;;;;;1.50;99.90;;;;;;5122326;28;19995;-61
2022/04/02 04:48:54;;;;;;;;;;;1.50;99.90;;;;;;5123758;27;20300;-61
2022/04/02 04:51:23;;;;;;;;;;;1.40;99.90;;;;;;5127532;27;20033;-63
2022/04/02 04:53:51;;;;;;;;;;;1.30;99.90;;;;;;5107806;28;20280;-63
2022/04/02 04:56:17;;;;;;;;;;;1.20;99.90;;;;;;5121919;27;19920;-62
2022/04/02 04:58:43;;;;;;;;;;;1.20;99.90;;;;;;5102785;28;19912;-61
2022/04/02 05:01:09;;;;;;;;;;;1.20;99.90;;;;;;5131941;27;20309;-62
2022/04/02 05:03:35;;;;;;;;;;;1.10;99.90;;;;;;5115495;27;19911;-63
2022/04/02 05:06:01;;;;;;;;;;;1.10;99.90;;;;;;5125092;27;19912;-62
2022/04/02 05:08:27;;;;;;;;;;;1.00;99.90;;;;;;5130475;27;19915;-62
2022/04/02 05:10:53;;;;;;;;;;;1.00;99.90;;;;;;5133867;27;19934;-62
2022/04/02 05:13:18;;;;;;;;;;;1.00;99.90;;;;;;5127625;27;19931;-62
2022/04/02 05:15:45;;;;;;;;;;;1.00;99.90;;;;;;5136245;27;19933;-63
2022/04/02 05:18:11;;;;;;;;;;;1.00;99.90;;;;;;5124306;27;19915;-61
2022/04/02 05:20:37;;;;;;;;;;;1.00;99.90;;;;;;5127976;27;19919;-62
2022/04/02 05:23:03;;;;;;;;;;;1.00;99.90;;;;;;5135210;27;19912;-62
2022/04/02 05:25:29;;;;;;;;;;;1.00;99.90;;;;;;5121899;27;20051;-62
2022/04/02 05:27:54;;;;;;;;;;;1.00;99.90;;;;;;5124586;27;19933;-62
2022/04/02 05:30:20;;;;;;;;;;;1.10;99.90;;;;;;5111691;27;19908;-63
2022/04/02 05:32:46;;;;;;;;;;;1.00;99.90;;;;;;5113291;27;20498;-62
2022/04/02 05:35:11;;;;;;;;;;;1.00;99.90;;;;;;5114569;27;19923;-62
2022/04/02 05:37:43;;;;;;;;;;;1.20;99.90;;;;;;5130932;27;20001;-62
2022/04/02 05:40:09;;;;;;;;;;;1.20;99.90;;;;;;5129997;27;19915;-62
2022/04/02 05:42:35;;;;;;;;;;;1.10;99.90;;;;;;5132256;27;19919;-62
2022/04/02 05:45:00;;;;;;;;;;;1.10;99.90;;;;;;5114611;27;19912;-63
2022/04/02 05:47:26;;;;;;;;;;;1.00;99.90;;;;;;5113798;27;19970;-61
2022/04/02 05:49:52;;;;;;;;;;;0.90;99.90;;;;;;5134298;27;19912;-62
2022/04/02 05:52:18;;;;;;;;;;;0.80;99.90;;;;;;5126460;27;19938;-63
2022/04/02 05:54:43;;;;;;;;;;;0.90;99.90;;;;;;5110725;27;20006;-62
2022/04/02 05:57:09;;;;;;;;;;;0.80;99.90;;;;;;5128995;27;19917;-63
2022/04/02 05:59:35;;;;;;;;;;;0.80;99.90;;;;;;5126768;27;19919;-63
2022/04/02 06:02:01;;;;;;;;;;;0.80;99.90;;;;;;5124426;27;19915;-62
2022/04/02 06:04:28;;;;;;;;;;;0.80;99.90;;;;;;5133094;27;19919;-63
2022/04/02 06:06:54;;;;;;;;;;;0.80;99.90;;;;;;5127539;27;19919;-62
2022/04/02 06:09:19;;;;;;;;;;;0.80;99.90;;;;;;5131995;27;19920;-62
2022/04/02 06:11:45;;;;;;;;;;;0.90;99.90;;;;;;5123163;27;19915;-61
2022/04/02 06:14:13;;;;;;;;;;;0.80;99.90;;;;;;5132731;27;19925;-62
2022/04/02 06:16:39;;;;;;;;;;;0.90;99.90;;;;;;5110774;27;19915;-62
2022/04/02 06:19:04;;;;;;;;;;;0.90;99.90;;;;;;5132520;27;19918;-61
2022/04/02 06:21:30;;;;;;;;;;;0.90;99.90;;;;;;5131536;27;20308;-62
2022/04/02 06:23:56;;;;;;;;;;;1.00;99.90;;;;;;5127784;27;19939;-63
2022/04/02 06:26:21;;;;;;;;;;;1.00;99.90;;;;;;5110313;27;19956;-63
2022/04/02 06:28:48;;;;;;;;;;;1.10;99.90;;;;;;5129214;27;19911;-61
2022/04/02 06:31:13;;;;;;;;;;;1.20;99.90;;;;;;5122665;27;20410;-62
2022/04/02 06:33:39;;;;;;;;;;;1.30;99.90;;;;;;5130512;27;19919;-64
2022/04/02 06:36:05;;;;;;;;;;;1.30;99.90;;;;;;5133486;27;20313;-62
2022/04/02 06:38:30;;;;;;;;;;;1.40;99.90;;;;;;5114001;27;19911;-61
2022/04/02 06:40:59;;;;;;;;;;;1.50;99.90;;;;;;5109310;27;19920;-62
2022/04/02 06:43:24;;;;;;;;;;;1.50;99.90;;;;;;5124466;27;20284;-62
2022/04/02 06:45:50;;;;;;;;;;;1.70;99.90;;;;;;5127333;27;19935;-63
2022/04/02 06:48:15;;;;;;;;;;;1.90;99.90;;;;;;5132956;27;19979;-62
2022/04/02 06:50:42;;;;;;;;;;;2.00;99.90;;;;;;5123519;27;19921;-62
2022/04/02 06:53:07;;;;;;;;;;;2.10;99.90;;;;;;5128947;27;20006;-63
2022/04/02 06:55:33;;;;;;;;;;;2.10;99.90;;;;;;5128470;27;19998;-63
2022/04/02 06:57:59;;;;;;;;;;;2.20;99.90;;;;;;5129291;27;19929;-62
2022/04/02 07:00:25;;;;;;;;;;;2.30;99.90;;;;;;5125539;27;20279;-62
2022/04/02 07:02:50;;;;;;;;;;;2.60;99.90;;;;;;5130264;27;20002;-63
2022/04/02 07:05:18;;;;;;;;;;;2.80;99.90;;;;;;5119717;27;19922;-62
2022/04/02 07:07:44;;;;;;;;;;;2.90;99.90;;;;;;5131806;27;19911;-62
2022/04/02 07:10:11;;;;;;;;;;;3.10;99.90;;;;;;5126406;27;19912;-62
2022/04/02 07:12:36;;;;;;;;;;;3.20;99.90;;;;;;5121088;27;20275;-63
2022/04/02 07:15:03;;;;;;;;;;;3.20;99.90;;;;;;5127297;27;19923;-62
2022/04/02 07:17:28;;;;;;;;;;;3.30;99.90;;;;;;5129239;27;19926;-64
2022/04/02 07:19:57;;;;;;;;;;;3.30;99.90;;;;;;5124505;27;19912;-62
2022/04/02 07:22:24;;;;;;;;;;;3.40;99.90;;;;;;5124217;27;19982;-62
2022/04/02 07:24:51;;;;;;;;;;;3.50;99.90;;;;;;5121783;27;19941;-61
2022/04/02 07:27:20;;;;;;;;;;;3.60;99.90;;;;;;5106882;27;20324;-62
2022/04/02 07:29:46;;;;;;;;;;;3.60;99.90;;;;;;5119087;27;20272;-62
2022/04/02 07:32:12;;;;;;;;;;;3.70;99.90;;;;;;5125448;27;19918;-62
2022/04/02 07:34:37;;;;;;;;;;;3.70;99.90;;;;;;5116931;27;20302;-62
2022/04/02 07:37:12;;;;;;;;;;;3.90;99.90;;;;;;5131400;27;20285;-62
2022/04/02 07:39:47;;;;;;;;;;;4.00;99.90;;;;;;5132981;27;20280;-61
2022/04/02 07:42:20;;;;;;;;;;;4.10;99.90;;;;;;5124987;27;19916;-61
2022/04/02 07:45:05;;;;;;;;;;;4.10;99.90;;;;;;5117855;27;20163;-62
2022/04/02 07:47:32;;;;;;;;;;;4.10;99.90;;;;;;5123893;27;19926;-63
2022/04/02 07:50:05;;;;;;;;;;;4.30;99.90;;;;;;5107991;27;19918;-62
2022/04/02 07:52:31;;;;;;;;;;;4.40;99.90;;;;;;5123743;27;19911;-62
2022/04/02 07:55:00;;;;;;;;;;;4.50;99.90;;;;;;5128807;27;20329;-62
2022/04/02 07:57:28;;;;;;;;;;;4.50;99.90;;;;;;5126970;27;19918;-62
2022/04/02 08:00:00;;;;;;;;;;;4.50;99.90;;;;;;5108879;27;19955;-62
2022/04/02 08:02:36;;;;;;;;;;;4.40;99.90;;;;;;5091974;28;19955;-63
2022/04/02 08:05:06;;;;;;;;;;;4.40;99.90;;;;;;5125329;27;19926;-62
2022/04/02 08:07:33;;;;;;;;;;;4.50;99.90;;;;;;5124195;27;19919;-62
2022/04/02 08:09:59;;;;;;;;;;;4.50;99.90;;;;;;5135843;27;19923;-64
2022/04/02 08:12:25;;;;;;;;;;;4.50;99.90;;;;;;5135059;28;19911;-62
2022/04/02 08:14:51;;;;;;;;;;;4.70;99.90;;;;;;5133616;28;19997;-63
2022/04/02 08:17:19;;;;;;;;;;;4.70;99.90;;;;;;5142640;28;19919;-62
2022/04/02 08:19:45;;;;;;;;;;;4.80;99.90;;;;;;5122645;28;19927;-63
2022/04/02 08:22:11;;;;;;;;;;;4.90;99.90;;;;;;5150633;28;19977;-62
2022/04/02 08:24:36;;;;;;;;;;;5.10;99.90;;;;;;5127701;28;19935;-63
2022/04/02 08:27:03;;;;;;;;;;;5.30;99.90;;;;;;5139150;28;19912;-62
2022/04/02 08:29:29;;;;;;;;;;;5.50;99.90;;;;;;5143427;27;19918;-62
2022/04/02 08:32:04;;;;;;;;;;;5.50;99.90;;;;;;5145555;28;19943;-62
2022/04/02 08:34:35;;;;;;;;;;;5.60;99.90;;;;;;5149435;27;19940;-63
2022/04/02 08:37:10;;;;;;;;;;;5.90;99.90;;;;;;5136671;27;19926;-62
2022/04/02 08:39:36;;;;;;;;;;;6.10;99.90;;;;;;5138578;27;19946;-63
2022/04/02 08:42:08;;;;;;;;;;;6.30;99.90;;;;;;5140335;27;19919;-61
2022/04/02 08:44:50;;;;;;;;;;;6.30;99.90;;;;;;5112639;27;19980;-61
2022/04/02 08:47:22;;;;;;;;;;;6.30;99.90;;;;;;5123959;27;19915;-62
2022/04/02 08:50:00;;;;;;;;;;;6.30;99.90;;;;;;5130813;27;19963;-64
2022/04/02 08:52:39;;;;;;;;;;;6.40;99.90;;;;;;5117819;27;19911;-63
2022/04/02 08:55:18;;;;;;;;;;;6.50;99.90;;;;;;5129567;27;20018;-64
2022/04/02 08:57:53;;;;;;;;;;;6.50;99.90;;;;;;5126145;27;19916;-63
2022/04/02 09:00:26;;;;;;;;;;;6.50;99.90;;;;;;5118774;27;19926;-62
2022/04/02 09:02:54;;;;;;;;;;;6.70;99.90;;;;;;5125234;27;19920;-63
2022/04/02 09:05:39;;;;;;;;;;;6.90;99.90;;;;;;5118667;27;19912;-62
2022/04/02 09:08:23;;;;;;;;;;;6.90;99.90;;;;;;5134966;27;19919;-63
2022/04/02 09:11:09;;;;;;;;;;;7.10;99.90;;;;;;5130513;27;19911;-64
2022/04/02 09:13:56;;;;;;;;;;;7.20;99.90;;;;;;5130462;27;19920;-63
2022/04/02 09:16:34;;;;;;;;;;;7.40;99.90;;;;;;5134496;27;19990;-62
2022/04/02 09:19:18;;;;;;;;;;;7.30;99.90;;;;;;5131797;27;20061;-62
2022/04/02 09:21:59;;;;;;;;;;;7.50;99.90;;;;;;5128311;27;19964;-62
2022/04/02 09:24:27;;;;;;;;;;;7.60;99.90;;;;;;5132795;27;19911;-63
2022/04/02 09:27:12;;;;;;;;;;;7.90;99.90;;;;;;5110832;27;19911;-61
2022/04/02 09:29:49;;;;;;;;;;;7.60;99.90;;;;;;5122372;27;19912;-62
2022/04/02 09:32:34;;;;;;;;;;;7.80;99.90;;;;;;5111650;27;19936;-63
2022/04/02 09:35:15;;;;;;;;;;;8.00;99.90;;;;;;5104675;27;19972;-62
2022/04/02 09:37:52;;;;;;;;;;;8.10;99.90;;;;;;5117538;27;19995;-61
2022/04/02 09:40:18;;;;;;;;;;;8.30;99.90;;;;;;5117716;27;19976;-64
2022/04/02 09:42:50;;;;;;;;;;;8.40;99.90;;;;;;5132734;27;19977;-62
2022/04/02 09:45:19;;;;;;;;;;;8.10;99.90;;;;;;5112941;28;19915;-62
2022/04/02 09:47:51;;;;;;;;;;;8.00;99.90;;;;;;5121506;27;20002;-62
2022/04/02 09:50:23;;;;;;;;;;;8.00;99.90;;;;;;5132572;27;19911;-62
2022/04/02 09:53:04;;;;;;;;;;;8.30;99.90;;;;;;5130243;27;19912;-62
2022/04/02 09:55:40;;;;;;;;;;;8.60;99.90;;;;;;5115787;27;20034;-61
2022/04/02 09:58:17;;;;;;;;;;;8.70;99.90;;;;;;5122675;27;19919;-61
2022/04/02 10:01:01;;;;;;;;;;;8.40;99.90;;;;;;5129547;27;21256;-63
2022/04/02 10:03:41;;;;;;;;;;;8.30;99.90;;;;;;5127891;27;20207;-62
2022/04/02 10:06:25;;;;;;;;;;;8.40;99.90;;;;;;5124454;27;20369;-63
2022/04/02 10:09:02;;;;;;;;;;;8.50;99.90;;;;;;5124067;27;20317;-62
2022/04/02 10:11:29;;;;;;;;;;;8.60;99.90;;;;;;5121640;27;20327;-62
2022/04/02 10:13:59;;;;;;;;;;;8.80;99.90;;;;;;5125238;27;20010;-62
2022/04/02 10:16:25;;;;;;;;;;;8.80;99.90;;;;;;5136097;27;20276;-63
2022/04/02 10:18:58;;;;;;;;;;;8.70;99.90;;;;;;5132932;27;19920;-62
2022/04/02 10:21:24;;;;;;;;;;;8.80;99.90;;;;;;5112051;27;19949;-61
2022/04/02 10:23:54;;;;;;;;;;;8.80;99.90;;;;;;5109784;28;19919;-62
2022/04/02 10:26:21;;;;;;;;;;;8.80;99.90;;;;;;5107932;27;19911;-63
2022/04/02 10:29:06;;;;;;;;;;;8.80;99.90;;;;;;5129101;27;20018;-62
2022/04/02 10:31:56;;;;;;;;;;;9.00;99.90;;;;;;5111246;27;19919;-62
2022/04/02 10:34:34;;;;;;;;;;;9.10;99.90;;;;;;5124387;27;19967;-62
2022/04/02 10:37:10;;;;;;;;;;;9.30;99.90;;;;;;5110178;27;20150;-62
2022/04/02 10:39:39;;;;;;;;;;;9.50;99.90;;;;;;5122378;27;19916;-63
2022/04/02 10:42:08;;;;;;;;;;;9.50;99.90;;;;;;5124984;27;19957;-63
2022/04/02 10:44:44;;;;;;;;;;;9.60;99.90;;;;;;5122488;27;19919;-62
2022/04/02 10:47:12;;;;;;;;;;;9.50;99.90;;;;;;5138063;27;19929;-62
2022/04/02 10:49:39;;;;;;;;;;;9.40;99.90;;;;;;5142342;27;19983;-63
2022/04/02 10:52:05;;;;;;;;;;;9.30;99.90;;;;;;5127611;27;20489;-62
2022/04/02 10:54:33;;;;;;;;;;;9.10;99.80;;;;;;5137067;27;19920;-63
2022/04/02 10:56:59;;;;;;;;;;;9.10;99.90;;;;;;5136275;27;19915;-64
2022/04/02 10:59:30;;;;;;;;;;;9.20;99.90;;;;;;5145494;27;19967;-64
2022/04/02 11:01:58;;;;;;;;;;;9.00;99.90;;;;;;5120735;27;19915;-62
2022/04/02 11:04:27;;;;;;;;;;;9.30;99.60;;;;;;5141848;27;19911;-62
2022/04/02 11:06:53;;;;;;;;;;;9.50;98.80;;;;;;5131631;27;19912;-62
2022/04/02 11:09:22;;;;;;;;;;;9.60;97.70;;;;;;5113156;27;19915;-63
2022/04/02 11:11:48;;;;;;;;;;;9.90;97.30;;;;;;5137525;27;19927;-62
2022/04/02 11:14:20;;;;;;;;;;;10.10;96.80;;;;;;5121468;27;19965;-63
2022/04/02 11:16:46;;;;;;;;;;;10.00;96.20;;;;;;5140761;27;19923;-64
2022/04/02 11:22:02;;;;;;;;;;;9.40;97.70;;;;;;5132903;27;19923;-64
2022/04/02 11:24:30;;;;;;;;;;;9.10;98.70;;;;;;5134379;27;19915;-62
2022/04/02 11:26:56;;;;;;;;;;;8.90;98.90;;;;;;5139049;27;19999;-63
2022/04/02 11:29:23;;;;;;;;;;;8.80;98.90;;;;;;5133765;27;20357;-63
2022/04/02 11:31:49;;;;;;;;;;;9.10;98.70;;;;;;5128255;27;19954;-60
2022/04/02 11:34:20;;;;;;;;;;;9.30;98.80;;;;;;5124719;27;21462;-63
2022/04/02 11:36:49;;;;;;;;;;;9.40;98.80;;;;;;5132331;27;19912;-62
2022/04/02 11:39:44;;;;;;;;;;;9.60;98.60;;;;;;5130808;27;20189;-63
2022/04/02 11:42:12;;;;;;;;;;;9.90;98.00;;;;;;5109335;27;20273;-62
2022/04/02 11:44:38;;;;;;;;;;;9.90;98.60;;;;;;5138116;27;19933;-63
2022/04/02 11:47:24;;;;;;;;;;;10.00;98.40;;;;;;5133697;27;19912;-62
2022/04/02 11:49:51;;;;;;;;;;;9.90;97.80;;;;;;5135222;27;19933;-62
2022/04/02 11:52:16;;;;;;;;;;;9.70;97.00;;;;;;5134232;27;19963;-68
2022/04/02 11:54:48;;;;;;;;;;;9.50;97.80;;;;;;5121671;27;20002;-63
2022/04/02 11:57:14;;;;;;;;;;;9.50;97.80;;;;;;5127353;27;19912;-62
2022/04/02 11:59:56;;;;;;;;;;;9.20;97.40;;;;;;5130996;27;20250;-63
2022/04/02 12:02:41;;;;;;;;;;;9.20;97.60;;;;;;5139577;27;19911;-64
2022/04/02 12:05:08;;;;;;;;;;;9.40;96.10;;;;;;5130734;27;20605;-63
2022/04/02 12:07:44;;;;;;;;;;;9.70;96.00;;;;;;5114551;27;19998;-64
2022/04/02 12:10:13;;;;;;;;;;;10.00;95.50;;;;;;5107131;27;19946;-62
2022/04/02 12:12:45;;;;;;;;;;;10.30;93.60;;;;;;5140836;27;19927;-60
2022/04/02 12:15:11;;;;;;;;;;;10.10;94.10;;;;;;5135762;27;19927;-62
2022/04/02 12:17:38;;;;;;;;;;;10.10;94.10;;;;;;5118801;28;19899;-62
2022/04/02 12:20:07;;;;;;;;;;;10.10;94.10;;;;;;5117971;28;19900;-61
2022/04/02 12:22:35;;;;;;;;;;;10.10;94.40;;;;;;5118607;28;19997;-63
2022/04/02 12:25:03;;;;;;;;;;;9.80;95.40;;;;;;5118644;27;20014;-63
2022/04/02 12:27:30;;;;;;;;;;;9.80;95.20;;;;;;5102494;28;20026;-62
2022/04/02 12:30:00;;;;;;;;;;;9.80;95.40;;;;;;5124482;28;20284;-62
2022/04/02 12:32:28;;;;;;;;;;;9.90;95.60;;;;;;5111223;27;19919;-61
2022/04/02 12:35:10;;;;;;;;;;;10.20;95.40;;;;;;5119239;27;20571;-62
2022/04/02 12:37:49;;;;;;;;;;;10.60;94.90;;;;;;5110870;28;19939;-62
2022/04/02 12:40:16;;;;;;;;;;;10.60;93.90;;;;;;5120333;27;20423;-61
2022/04/02 12:42:44;;;;;;;;;;;10.10;94.50;;;;;;5132919;27;20317;-61
2022/04/02 12:45:12;;;;;;;;;;;10.30;94.80;;;;;;5117726;27;20356;-60
2022/04/02 12:47:37;;;;;;;;;;;10.40;94.60;;;;;;5121274;27;19911;-62
2022/04/02 12:50:10;;;;;;;;;;;10.50;94.50;;;;;;5104136;27;20276;-61
2022/04/02 12:52:48;;;;;;;;;;;10.60;93.90;;;;;;5111365;27;19919;-60
2022/04/02 12:55:25;;;;;;;;;;;10.60;93.10;;;;;;5127823;27;19927;-62
2022/04/02 12:57:57;;;;;;;;;;;10.50;93.30;;;;;;5128205;28;19918;-61
2022/04/02 13:00:27;;;;;;;;;;;10.50;93.50;;;;;;5119904;28;19962;-60
2022/04/02 13:02:55;;;;;;;;;;;10.70;93.20;;;;;;5122311;28;19924;-61
2022/04/02 13:05:21;;;;;;;;;;;10.80;93.10;;;;;;5106477;27;19917;-64
2022/04/02 13:08:00;;;;;;;;;;;10.80;92.50;;;;;;5122998;27;20002;-62
2022/04/02 13:10:27;;;;;;;;;;;10.50;93.00;;;;;;5124207;27;19912;-61
2022/04/02 13:12:54;;;;;;;;;;;10.30;92.70;;;;;;5100315;28;19912;-62
2022/04/02 13:15:21;;;;;;;;;;;10.20;93.40;;;;;;5121804;27;20364;-61
2022/04/02 13:20:34;;;;;;;;;;;9.90;94.00;;;;;;5128884;27;19934;-60
2022/04/02 13:23:01;;;;;;;;;;;10.00;93.80;;;;;;5126514;27;19915;-62
2022/04/02 13:25:30;;;;;;;;;;;10.10;93.70;;;;;;5108208;27;19912;-61
2022/04/02 13:27:58;;;;;;;;;;;10.20;93.60;;;;;;5136624;27;19911;-61
2022/04/02 13:30:38;;;;;;;;;;;10.00;93.40;;;;;;5127516;27;20268;-63
2022/04/02 13:33:18;;;;;;;;;;;10.30;93.20;;;;;;5122214;27;19919;-62
2022/04/02 13:35:47;;;;;;;;;;;10.50;92.80;;;;;;5117357;27;19919;-62
2022/04/02 13:38:30;;;;;;;;;;;10.50;93.80;;;;;;5133768;27;19958;-62
2022/04/02 13:40:57;;;;;;;;;;;10.70;92.50;;;;;;5133385;27;20364;-62
2022/04/02 13:43:28;;;;;;;;;;;10.70;92.10;;;;;;5094628;27;19955;-62
2022/04/02 13:45:59;;;;;;;;;;;10.70;90.50;;;;;;5126949;27;20003;-62
2022/04/02 13:48:28;;;;;;;;;;;10.50;90.50;;;;;;5114351;27;19912;-62
2022/04/02 13:50:59;;;;;;;;;;;10.40;90.70;;;;;;5110009;27;19998;-62
2022/04/02 13:53:43;;;;;;;;;;;10.60;90.40;;;;;;5127177;27;20314;-61
2022/04/02 13:56:18;;;;;;;;;;;10.90;90.20;;;;;;5121648;27;20579;-61
2022/04/02 13:58:45;;;;;;;;;;;11.00;89.70;;;;;;5128293;27;19912;-62
2022/04/02 14:01:18;;;;;;;;;;;11.10;89.10;;;;;;5112104;27;19915;-61
2022/04/02 14:03:45;;;;;;;;;;;11.10;88.70;;;;;;5118013;27;19915;-61
2022/04/02 14:06:12;;;;;;;;;;;11.10;89.50;;;;;;5136981;27;19911;-62
2022/04/02 14:08:38;;;;;;;;;;;11.00;90.10;;;;;;5139067;27;20450;-63
2022/04/02 14:11:12;;;;;;;;;;;10.90;90.00;;;;;;5140958;27;19947;-61
2022/04/02 14:13:41;;;;;;;;;;;10.90;90.20;;;;;;5132236;27;19922;-63
2022/04/02 14:16:11;;;;;;;;;;;10.80;89.60;;;;;;5111756;27;19919;-64
2022/04/02 14:18:41;;;;;;;;;;;10.90;90.00;;;;;;5135903;27;20370;-62
2022/04/02 14:21:08;;;;;;;;;;;10.90;89.90;;;;;;5139450;27;19925;-64
2022/04/02 14:23:36;;;;;;;;;;;10.60;90.10;;;;;;5135039;27;19931;-62
2022/04/02 14:26:15;;;;;;;;;;;10.40;90.80;;;;;;5128323;27;19994;-62
2022/04/02 14:29:00;;;;;;;;;;;10.50;91.50;;;;;;5145364;27;19912;-63
2022/04/02 14:31:28;;;;;;;;;;;10.60;90.80;;;;;;5150745;27;19899;-62
2022/04/02 14:33:56;;;;;;;;;;;10.60;91.30;;;;;;5129730;27;20284;-62
2022/04/02 14:36:24;;;;;;;;;;;10.50;91.20;;;;;;5129920;27;20282;-63
2022/04/02 14:39:10;;;;;;;;;;;10.60;91.60;;;;;;5125433;27;20527;-62
2022/04/02 14:41:54;;;;;;;;;;;10.50;91.70;;;;;;5133337;27;19918;-62
2022/04/02 14:44:20;;;;;;;;;;;10.40;92.10;;;;;;5123967;27;20280;-63
2022/04/02 14:47:14;;;;;;;;;;;10.40;92.30;;;;;;5116944;28;19932;-62
2022/04/02 14:49:58;;;;;;;;;;;10.30;92.60;;;;;;5117178;28;19935;-62